Time;durP1;ratioP1;P1;durP2;ratioP2;P2;SDS_P1;SDS_P2;PMS_P1;PMS_P2;Temp;Humidity;BMP_temperature;BMP_pressure;BME280_temperature;BME280_humidity;BME280_pressure;Samples;Min_cycle;Max_cycle;Signal;HPM_P1;HPM_P2
2023/07/05 00:00:33;;;;;;;19.23;10.13;;;;;;;;;;5080300;28;20211;-69
2023/07/05 00:02:58;;;;;;;18.25;9.52;;;;;;;;;;5083615;28;20235;-70
2023/07/05 00:05:24;;;;;;;17.35;9.38;;;;;;;;;;5078895;28;20180;-70
2023/07/05 00:07:49;;;;;;;17.52;9.70;;;;;;;;;;5074360;28;20194;-70
2023/07/05 00:10:14;;;;;;;16.83;9.93;;;;;;;;;;5089331;28;20539;-70
2023/07/05 00:12:40;;;;;;;18.48;9.65;;;;;;;;;;5077378;28;20207;-70
2023/07/05 00:15:06;;;;;;;22.13;10.13;;;;;;;;;;5073636;28;20186;-70
2023/07/05 00:17:35;;;;;;;15.50;9.82;;;;;;;;;;5085265;28;20263;-70
2023/07/05 00:20:02;;;;;;;16.63;9.02;;;;;;;;;;5067752;28;20185;-70
2023/07/05 00:22:28;;;;;;;17.55;10.15;;;;;;;;;;5075862;28;20271;-71
2023/07/05 00:24:54;;;;;;;16.85;9.90;;;;;;;;;;5081098;28;20609;-71
2023/07/05 00:27:23;;;;;;;13.07;9.00;;;;;;;;;;5085105;28;20215;-70
2023/07/05 00:29:50;;;;;;;18.20;9.32;;;;;;;;;;5084469;28;20192;-70
2023/07/05 00:32:15;;;;;;;14.02;9.02;;;;;;;;;;5077995;28;20753;-69
2023/07/05 00:34:41;;;;;;;15.55;9.30;;;;;;;;;;5082123;28;20180;-70
2023/07/05 00:37:06;;;;;;;18.13;8.77;;;;;;;;;;5076448;28;20583;-70
2023/07/05 00:39:31;;;;;;;17.20;10.10;;;;;;;;;;5081578;28;20245;-69
2023/07/05 00:41:57;;;;;;;13.25;8.60;;;;;;;;;;5079974;28;20251;-69
2023/07/05 00:44:22;;;;;;;15.45;9.55;;;;;;;;;;5072508;28;20557;-69
2023/07/05 00:46:52;;;;;;;16.48;9.88;;;;;;;;;;5076272;28;20208;-69
2023/07/05 00:49:21;;;;;;;15.23;9.38;;;;;;;;;;5074928;28;20200;-70
2023/07/05 00:51:58;;;;;;;18.80;9.57;;;;;;;;;;5082986;28;20700;-69
2023/07/05 00:54:31;;;;;;;19.77;9.77;;;;;;;;;;5078226;28;20604;-71
2023/07/05 00:57:05;;;;;;;18.40;10.52;;;;;;;;;;5081473;28;20240;-71
2023/07/05 00:59:39;;;;;;;18.20;10.20;;;;;;;;;;5070476;28;20184;-70
2023/07/05 01:02:05;;;;;;;18.08;10.43;;;;;;;;;;5083811;28;20235;-70
2023/07/05 01:04:33;;;;;;;16.20;10.45;;;;;;;;;;5079910;28;20180;-71
2023/07/05 01:06:58;;;;;;;19.10;10.90;;;;;;;;;;5078548;28;20196;-71
2023/07/05 01:09:26;;;;;;;16.98;10.68;;;;;;;;;;5072174;28;20259;-71
2023/07/05 01:12:10;;;;;;;17.45;10.88;;;;;;;;;;5077011;28;20590;-72
2023/07/05 01:14:59;;;;;;;21.33;10.70;;;;;;;;;;5080014;28;20192;-73
2023/07/05 01:17:43;;;;;;;19.35;11.30;;;;;;;;;;5087996;28;20215;-72
2023/07/05 01:21:06;;;;;;;19.02;11.65;;;;;;;;;;5088069;28;20539;-72
2023/07/05 01:23:50;;;;;;;20.85;11.68;;;;;;;;;;5047719;28;20197;-72
2023/07/05 01:26:58;;;;;;;18.38;11.73;;;;;;;;;;5075617;28;20242;-72
2023/07/05 01:29:45;;;;;;;16.33;11.55;;;;;;;;;;5065668;28;20196;-72
2023/07/05 01:32:38;;;;;;;22.00;11.85;;;;;;;;;;5075929;28;20571;-74
2023/07/05 01:35:08;;;;;;;19.00;11.93;;;;;;;;;;5088702;28;20312;-78
2023/07/05 01:37:40;;;;;;;19.27;12.27;;;;;;;;;;5063035;28;20507;-74
2023/07/05 01:40:34;;;;;;;21.27;12.45;;;;;;;;;;5072294;28;20189;-72
2023/07/05 01:43:12;;;;;;;16.00;11.80;;;;;;;;;;5073484;28;20613;-72
2023/07/05 01:45:55;;;;;;;22.05;12.50;;;;;;;;;;5070751;28;20177;-72
2023/07/05 01:48:23;;;;;;;21.25;12.50;;;;;;;;;;5071567;28;20184;-72
2023/07/05 01:51:08;;;;;;;18.23;12.15;;;;;;;;;;5077395;28;20598;-71
2023/07/05 01:53:42;;;;;;;17.40;12.88;;;;;;;;;;5089217;28;20564;-71
2023/07/05 01:56:16;;;;;;;22.23;12.82;;;;;;;;;;5077408;28;20541;-71
2023/07/05 01:58:45;;;;;;;19.80;12.45;;;;;;;;;;5085657;28;20199;-71
2023/07/05 02:01:14;;;;;;;24.50;12.95;;;;;;;;;;5076738;28;20290;-71
2023/07/05 02:03:41;;;;;;;20.00;12.23;;;;;;;;;;5083698;28;20216;-71
2023/07/05 02:06:08;;;;;;;23.85;13.63;;;;;;;;;;5083105;28;20655;-71
2023/07/05 02:08:39;;;;;;;26.83;14.18;;;;;;;;;;5074072;28;20196;-71
2023/07/05 02:11:04;;;;;;;19.05;13.07;;;;;;;;;;5082495;28;20216;-71
2023/07/05 02:13:30;;;;;;;22.08;13.25;;;;;;;;;;5083597;28;20670;-71
2023/07/05 02:15:55;;;;;;;21.63;12.70;;;;;;;;;;5082753;28;20200;-71
2023/07/05 02:18:21;;;;;;;21.60;13.40;;;;;;;;;;5081839;28;20254;-71
2023/07/05 02:20:46;;;;;;;22.35;13.13;;;;;;;;;;5080288;28;20690;-71
2023/07/05 02:23:12;;;;;;;19.02;12.65;;;;;;;;;;5089966;28;20211;-71
2023/07/05 02:25:37;;;;;;;20.23;12.30;;;;;;;;;;5081575;28;20180;-71
2023/07/05 02:28:07;;;;;;;19.98;12.00;;;;;;;;;;5086785;28;20188;-73
2023/07/05 02:30:38;;;;;;;18.92;11.40;;;;;;;;;;5079857;28;20189;-71
2023/07/05 02:33:03;;;;;;;18.80;11.48;;;;;;;;;;5078143;28;20247;-70
2023/07/05 02:35:29;;;;;;;22.75;11.50;;;;;;;;;;5076426;28;20223;-70
2023/07/05 02:37:55;;;;;;;18.88;11.98;;;;;;;;;;5082709;28;20184;-70
2023/07/05 02:40:22;;;;;;;23.52;11.82;;;;;;;;;;5078259;28;20195;-69
2023/07/05 02:42:47;;;;;;;16.08;10.68;;;;;;;;;;5086091;28;20582;-71
2023/07/05 02:45:13;;;;;;;16.20;10.00;;;;;;;;;;5078999;28;20190;-69
2023/07/05 02:47:38;;;;;;;14.48;10.32;;;;;;;;;;5090453;28;20269;-71
2023/07/05 02:50:03;;;;;;;28.83;10.30;;;;;;;;;;5080702;28;20188;-71
2023/07/05 02:52:29;;;;;;;17.20;10.30;;;;;;;;;;5080844;28;20625;-71
2023/07/05 02:54:54;;;;;;;15.50;10.55;;;;;;;;;;5089075;28;20192;-70
2023/07/05 02:57:20;;;;;;;13.82;9.35;;;;;;;;;;5090043;28;20200;-70
2023/07/05 02:59:45;;;;;;;14.30;9.68;;;;;;;;;;5081309;28;20549;-69
2023/07/05 03:02:10;;;;;;;16.95;9.85;;;;;;;;;;5082409;28;20586;-70
2023/07/05 03:04:37;;;;;;;15.90;9.75;;;;;;;;;;5084570;28;20192;-70
2023/07/05 03:07:03;;;;;;;14.20;9.38;;;;;;;;;;5084685;28;20223;-66
2023/07/05 03:09:28;;;;;;;14.77;8.80;;;;;;;;;;5070887;28;20239;-66
2023/07/05 03:11:53;;;;;;;16.30;7.93;;;;;;;;;;5074474;28;20268;-67
2023/07/05 03:14:19;;;;;;;10.45;7.55;;;;;;;;;;5074254;28;20187;-67
2023/07/05 03:16:44;;;;;;;14.77;7.63;;;;;;;;;;5086779;28;20203;-68
2023/07/05 03:19:09;;;;;;;9.75;7.43;;;;;;;;;;5084318;28;20262;-66
2023/07/05 03:21:35;;;;;;;9.95;6.80;;;;;;;;;;5078563;28;20188;-67
2023/07/05 03:24:00;;;;;;;10.57;6.80;;;;;;;;;;5079937;28;20655;-67
2023/07/05 03:26:25;;;;;;;9.35;6.68;;;;;;;;;;5070731;28;20195;-66
2023/07/05 03:28:51;;;;;;;9.77;7.28;;;;;;;;;;5079468;28;20287;-68
2023/07/05 03:31:17;;;;;;;9.18;6.88;;;;;;;;;;5050945;28;20189;-67
2023/07/05 03:33:42;;;;;;;11.70;7.45;;;;;;;;;;5078306;28;20220;-64
2023/07/05 03:36:14;;;;;;;8.60;6.40;;;;;;;;;;5071759;28;20248;-67
2023/07/05 03:38:40;;;;;;;9.07;7.10;;;;;;;;;;5079270;28;20185;-66
2023/07/05 03:41:11;;;;;;;9.32;5.88;;;;;;;;;;5077528;28;20342;-66
2023/07/05 03:43:37;;;;;;;10.77;5.97;;;;;;;;;;5089372;28;20188;-65
2023/07/05 03:46:04;;;;;;;8.48;5.35;;;;;;;;;;5086554;28;20195;-66
2023/07/05 03:48:34;;;;;;;9.90;5.20;;;;;;;;;;5088637;28;20188;-67
2023/07/05 03:51:00;;;;;;;8.40;5.28;;;;;;;;;;5071408;28;20197;-68
2023/07/05 03:53:26;;;;;;;8.15;5.10;;;;;;;;;;5085992;28;20238;-66
2023/07/05 03:55:52;;;;;;;8.90;4.40;;;;;;;;;;5081549;28;20181;-67
2023/07/05 03:58:18;;;;;;;7.13;4.28;;;;;;;;;;5066829;28;20189;-69
2023/07/05 04:00:45;;;;;;;8.95;4.10;;;;;;;;;;5083350;28;20203;-67
2023/07/05 04:03:11;;;;;;;9.13;3.40;;;;;;;;;;5082925;28;20187;-66
2023/07/05 04:05:36;;;;;;;4.38;3.20;;;;;;;;;;5078181;28;20291;-68
2023/07/05 04:08:01;;;;;;;6.63;3.92;;;;;;;;;;5080802;28;20199;-66
2023/07/05 04:10:27;;;;;;;4.50;3.20;;;;;;;;;;5079721;28;20221;-66
2023/07/05 04:12:52;;;;;;;5.50;3.25;;;;;;;;;;5072860;28;20266;-67
2023/07/05 04:15:18;;;;;;;7.32;3.67;;;;;;;;;;5069066;28;20219;-66
2023/07/05 04:17:44;;;;;;;3.95;3.15;;;;;;;;;;5084803;28;20206;-66
2023/07/05 04:20:09;;;;;;;3.25;2.92;;;;;;;;;;5085856;28;20232;-66
2023/07/05 04:22:38;;;;;;;5.22;3.25;;;;;;;;;;5081456;28;20595;-71
2023/07/05 04:25:03;;;;;;;6.25;3.00;;;;;;;;;;5076326;28;20242;-67
2023/07/05 04:27:29;;;;;;;3.72;2.90;;;;;;;;;;5074785;28;20196;-68
2023/07/05 04:29:54;;;;;;;4.32;2.85;;;;;;;;;;5085854;28;20275;-70
2023/07/05 04:32:19;;;;;;;5.30;3.03;;;;;;;;;;5072132;28;20216;-70
2023/07/05 04:34:45;;;;;;;6.15;3.20;;;;;;;;;;5074167;28;20283;-70
2023/07/05 04:37:10;;;;;;;4.07;3.13;;;;;;;;;;5080730;28;20216;-66
2023/07/05 04:39:35;;;;;;;4.88;3.25;;;;;;;;;;5079845;28;20597;-70
2023/07/05 04:42:01;;;;;;;6.22;3.58;;;;;;;;;;5071200;28;20256;-67
2023/07/05 04:44:27;;;;;;;4.88;3.22;;;;;;;;;;5083595;28;20201;-68
2023/07/05 04:46:53;;;;;;;4.07;2.85;;;;;;;;;;5079386;28;20203;-69
2023/07/05 04:49:18;;;;;;;5.47;3.28;;;;;;;;;;5078903;28;20192;-68
2023/07/05 04:51:43;;;;;;;7.15;3.10;;;;;;;;;;5087333;28;20314;-67
2023/07/05 04:54:09;;;;;;;6.60;3.38;;;;;;;;;;5077780;28;20208;-66
2023/07/05 04:56:34;;;;;;;8.27;3.35;;;;;;;;;;5075982;28;20218;-67
2023/07/05 04:59:00;;;;;;;5.10;2.90;;;;;;;;;;5080593;28;20267;-69
2023/07/05 05:01:25;;;;;;;5.78;3.45;;;;;;;;;;5069183;28;20722;-68
2023/07/05 05:03:50;;;;;;;6.60;3.38;;;;;;;;;;5085349;28;20179;-67
2023/07/05 05:06:16;;;;;;;7.13;3.40;;;;;;;;;;5084183;28;20218;-68
2023/07/05 05:08:41;;;;;;;5.00;3.10;;;;;;;;;;5074309;28;20203;-69
2023/07/05 05:11:07;;;;;;;4.60;3.00;;;;;;;;;;5076420;28;20666;-70
2023/07/05 05:13:35;;;;;;;6.78;3.25;;;;;;;;;;5077748;28;20238;-70
2023/07/05 05:16:00;;;;;;;5.90;3.15;;;;;;;;;;5075561;28;20218;-68
2023/07/05 05:18:28;;;;;;;5.45;3.13;;;;;;;;;;5083919;28;20188;-66
2023/07/05 05:20:54;;;;;;;4.88;3.40;;;;;;;;;;5077652;28;20192;-66
2023/07/05 05:23:19;;;;;;;6.38;3.65;;;;;;;;;;5082840;28;20211;-68
2023/07/05 05:25:46;;;;;;;7.80;3.40;;;;;;;;;;5072833;28;20184;-69
2023/07/05 05:28:13;;;;;;;7.05;3.53;;;;;;;;;;5087102;28;20195;-67
2023/07/05 05:30:39;;;;;;;5.07;3.60;;;;;;;;;;5078446;28;20238;-66
2023/07/05 05:33:04;;;;;;;6.97;3.03;;;;;;;;;;5080814;28;20220;-67
2023/07/05 05:35:31;;;;;;;4.85;3.47;;;;;;;;;;5074028;28;20233;-67
2023/07/05 05:37:57;;;;;;;6.28;3.15;;;;;;;;;;5075917;28;20181;-67
2023/07/05 05:40:22;;;;;;;6.00;3.47;;;;;;;;;;5087212;28;20194;-69
2023/07/05 05:42:48;;;;;;;5.70;3.60;;;;;;;;;;5084188;28;20219;-68
2023/07/05 05:45:13;;;;;;;4.57;3.70;;;;;;;;;;5070246;28;20249;-69
2023/07/05 05:47:39;;;;;;;8.23;3.55;;;;;;;;;;5081083;28;20192;-68
2023/07/05 05:50:05;;;;;;;8.45;3.60;;;;;;;;;;5083062;28;20376;-67
2023/07/05 05:52:33;;;;;;;5.35;3.40;;;;;;;;;;5081029;28;20208;-70
2023/07/05 05:54:59;;;;;;;4.95;3.30;;;;;;;;;;5072052;28;20795;-68
2023/07/05 05:57:24;;;;;;;5.97;3.40;;;;;;;;;;5080159;28;20226;-68
2023/07/05 05:59:49;;;;;;;8.70;3.33;;;;;;;;;;5081437;28;20188;-67
2023/07/05 06:02:16;;;;;;;5.10;3.47;;;;;;;;;;5073262;28;20338;-70
2023/07/05 06:04:41;;;;;;;7.78;3.40;;;;;;;;;;5084588;28;20253;-69
2023/07/05 06:07:06;;;;;;;6.93;3.88;;;;;;;;;;5071577;28;20664;-67
2023/07/05 06:09:46;;;;;;;7.15;3.40;;;;;;;;;;5087484;28;20188;-67
2023/07/05 06:12:12;;;;;;;5.65;3.35;;;;;;;;;;5086836;28;20201;-70
2023/07/05 06:14:38;;;;;;;9.82;3.30;;;;;;;;;;5080328;28;20191;-67
2023/07/05 06:17:03;;;;;;;6.25;3.40;;;;;;;;;;5082278;28;20181;-70
2023/07/05 06:19:28;;;;;;;4.88;2.97;;;;;;;;;;5079149;28;20192;-69
2023/07/05 06:21:54;;;;;;;5.80;3.53;;;;;;;;;;5072491;28;20628;-70
2023/07/05 06:24:19;;;;;;;8.43;3.55;;;;;;;;;;5073277;28;20188;-68
2023/07/05 06:26:44;;;;;;;6.32;3.05;;;;;;;;;;5073513;28;20682;-70
2023/07/05 06:29:10;;;;;;;5.57;3.10;;;;;;;;;;5084298;28;20286;-70
2023/07/05 06:31:35;;;;;;;5.03;3.08;;;;;;;;;;5078987;28;20205;-69
2023/07/05 06:34:01;;;;;;;7.68;3.47;;;;;;;;;;5083256;28;20664;-68
2023/07/05 06:36:26;;;;;;;7.18;3.60;;;;;;;;;;5089694;28;20329;-69
2023/07/05 06:38:51;;;;;;;5.30;3.15;;;;;;;;;;5080018;28;20557;-69
2023/07/05 06:41:17;;;;;;;5.55;3.20;;;;;;;;;;5070563;28;20225;-70
2023/07/05 06:43:43;;;;;;;5.25;3.28;;;;;;;;;;5087065;28;20240;-67
2023/07/05 06:46:08;;;;;;;5.65;3.33;;;;;;;;;;5071802;28;20197;-69
2023/07/05 06:48:34;;;;;;;6.82;3.30;;;;;;;;;;5076838;28;20189;-69
2023/07/05 06:50:59;;;;;;;9.27;3.45;;;;;;;;;;5088174;28;20539;-68
2023/07/05 06:53:25;;;;;;;7.35;2.90;;;;;;;;;;5081427;28;20215;-68
2023/07/05 06:55:51;;;;;;;5.95;3.30;;;;;;;;;;5085867;28;20673;-68
2023/07/05 06:58:19;;;;;;;8.18;3.60;;;;;;;;;;5081275;28;20647;-67
2023/07/05 07:00:46;;;;;;;4.82;3.13;;;;;;;;;;5081620;28;20583;-69
2023/07/05 07:03:11;;;;;;;6.78;2.83;;;;;;;;;;5086070;28;20269;-69
2023/07/05 07:05:37;;;;;;;5.50;2.85;;;;;;;;;;5072626;28;20208;-70
2023/07/05 07:08:03;;;;;;;5.55;3.08;;;;;;;;;;5077770;28;20204;-69
2023/07/05 07:10:28;;;;;;;6.28;2.75;;;;;;;;;;5083154;28;20189;-71
2023/07/05 07:12:53;;;;;;;3.92;2.08;;;;;;;;;;5073390;28;20216;-69
2023/07/05 07:15:19;;;;;;;5.57;2.53;;;;;;;;;;5087355;28;20206;-68
2023/07/05 07:17:45;;;;;;;7.68;2.78;;;;;;;;;;5088502;28;20192;-69
2023/07/05 07:20:11;;;;;;;8.35;2.83;;;;;;;;;;5080307;28;20184;-69
2023/07/05 07:22:36;;;;;;;5.97;2.70;;;;;;;;;;5068930;28;20196;-67
2023/07/05 07:25:01;;;;;;;5.57;2.75;;;;;;;;;;5077464;28;20207;-68
2023/07/05 07:27:27;;;;;;;4.32;3.13;;;;;;;;;;5083869;28;20268;-69
2023/07/05 07:29:53;;;;;;;6.22;2.90;;;;;;;;;;5083556;28;20620;-68
2023/07/05 07:32:19;;;;;;;8.45;2.42;;;;;;;;;;5090265;28;20208;-66
2023/07/05 07:34:45;;;;;;;8.15;2.70;;;;;;;;;;5088603;28;20275;-69
2023/07/05 07:37:10;;;;;;;4.63;2.80;;;;;;;;;;5073360;28;20292;-68
2023/07/05 07:39:36;;;;;;;4.00;2.60;;;;;;;;;;5068800;28;20734;-67
2023/07/05 07:42:01;;;;;;;7.65;2.90;;;;;;;;;;5078483;28;20285;-69
2023/07/05 07:44:26;;;;;;;6.68;2.72;;;;;;;;;;5082551;28;20199;-69
2023/07/05 07:46:52;;;;;;;5.93;2.35;;;;;;;;;;5075049;28;20191;-67
2023/07/05 07:49:17;;;;;;;3.88;1.90;;;;;;;;;;5084258;28;20643;-67
2023/07/05 07:51:44;;;;;;;3.97;1.80;;;;;;;;;;5089194;28;20240;-66
2023/07/05 07:54:13;;;;;;;2.63;1.27;;;;;;;;;;5082773;28;20193;-69
2023/07/05 07:56:44;;;;;;;1.85;1.10;;;;;;;;;;5072600;28;20239;-67
2023/07/05 07:59:10;;;;;;;3.47;1.10;;;;;;;;;;5075418;28;20196;-69
2023/07/05 08:01:40;;;;;;;1.73;1.10;;;;;;;;;;5078196;28;20667;-67
2023/07/05 08:04:08;;;;;;;1.98;0.93;;;;;;;;;;5088705;28;20690;-68
2023/07/05 08:06:40;;;;;;;3.13;0.90;;;;;;;;;;5081383;28;20649;-65
2023/07/05 08:09:08;;;;;;;1.67;0.60;;;;;;;;;;5083310;28;20356;-68
2023/07/05 08:11:34;;;;;;;3.53;1.00;;;;;;;;;;5081736;28;20196;-71
2023/07/05 08:14:00;;;;;;;1.60;0.90;;;;;;;;;;5075001;28;20196;-69
2023/07/05 08:16:25;;;;;;;1.60;0.85;;;;;;;;;;5069017;28;20192;-67
2023/07/05 08:18:51;;;;;;;1.88;1.10;;;;;;;;;;5081085;28;20310;-68
2023/07/05 08:21:17;;;;;;;3.50;1.00;;;;;;;;;;5079761;28;20185;-68
2023/07/05 08:23:43;;;;;;;1.88;1.02;;;;;;;;;;5074896;28;20229;-67
2023/07/05 08:26:09;;;;;;;3.15;1.45;;;;;;;;;;5071712;28;20189;-66
2023/07/05 08:28:34;;;;;;;1.77;1.10;;;;;;;;;;5075811;28;20722;-66
2023/07/05 08:31:02;;;;;;;3.83;1.17;;;;;;;;;;5074043;28;20289;-68
2023/07/05 08:33:29;;;;;;;3.30;1.38;;;;;;;;;;5080832;28;20204;-68
2023/07/05 08:36:07;;;;;;;1.88;1.13;;;;;;;;;;5073887;28;20216;-68
2023/07/05 08:38:32;;;;;;;3.53;1.08;;;;;;;;;;5075766;28;20192;-67
2023/07/05 08:41:07;;;;;;;2.50;1.13;;;;;;;;;;5088872;28;20186;-68
2023/07/05 08:43:41;;;;;;;2.47;1.25;;;;;;;;;;5083602;28;20209;-68
2023/07/05 08:46:12;;;;;;;6.40;1.40;;;;;;;;;;5074556;28;20193;-69
2023/07/05 08:48:39;;;;;;;3.97;1.30;;;;;;;;;;5074705;28;20212;-69
2023/07/05 08:51:05;;;;;;;2.85;1.13;;;;;;;;;;5070231;28;20187;-67
2023/07/05 08:53:41;;;;;;;4.10;1.38;;;;;;;;;;5080396;28;20211;-67
2023/07/05 08:56:13;;;;;;;2.30;1.17;;;;;;;;;;5067944;28;20184;-68
2023/07/05 08:58:43;;;;;;;2.97;1.33;;;;;;;;;;5076841;28;20215;-67
2023/07/05 09:01:31;;;;;;;5.07;1.50;;;;;;;;;;5091858;28;20199;-68
2023/07/05 09:03:58;;;;;;;3.53;1.50;;;;;;;;;;5081046;28;20417;-69
2023/07/05 09:06:34;;;;;;;2.95;1.10;;;;;;;;;;5087601;28;20279;-68
2023/07/05 09:09:18;;;;;;;3.08;1.33;;;;;;;;;;5075081;28;20209;-67
2023/07/05 09:12:23;;;;;;;4.20;1.40;;;;;;;;;;5082264;28;20216;-68
2023/07/05 09:15:12;;;;;;;4.40;1.60;;;;;;;;;;5075775;28;20203;-68
2023/07/05 09:17:49;;;;;;;3.28;1.63;;;;;;;;;;5074477;28;20268;-67
2023/07/05 09:20:36;;;;;;;3.80;1.70;;;;;;;;;;5085700;28;20191;-68
2023/07/05 09:23:07;;;;;;;3.08;1.70;;;;;;;;;;5079897;28;20180;-69
2023/07/05 09:25:35;;;;;;;4.18;1.50;;;;;;;;;;5093017;28;20591;-68
2023/07/05 09:28:23;;;;;;;2.55;1.40;;;;;;;;;;5086290;28;20185;-69
2023/07/05 09:30:49;;;;;;;3.78;1.33;;;;;;;;;;5073696;28;20257;-69
2023/07/05 09:33:32;;;;;;;3.88;1.58;;;;;;;;;;5072171;28;20208;-66
2023/07/05 09:36:03;;;;;;;2.45;1.25;;;;;;;;;;5076396;28;20604;-67
2023/07/05 09:38:33;;;;;;;2.72;1.38;;;;;;;;;;5083479;28;20546;-67
2023/07/05 09:41:09;;;;;;;5.03;1.35;;;;;;;;;;5091267;28;20185;-68
2023/07/05 09:43:36;;;;;;;4.10;1.20;;;;;;;;;;5084034;28;20256;-67
2023/07/05 09:46:05;;;;;;;3.88;1.30;;;;;;;;;;5080507;28;20184;-69
2023/07/05 09:48:36;;;;;;;3.42;1.27;;;;;;;;;;5085381;28;20184;-68
2023/07/05 09:51:03;;;;;;;3.47;1.15;;;;;;;;;;5089853;28;20275;-69
2023/07/05 09:53:53;;;;;;;3.20;1.30;;;;;;;;;;5075234;28;20216;-69
2023/07/05 09:56:27;;;;;;;3.55;1.25;;;;;;;;;;5087586;28;20178;-68
2023/07/05 09:59:07;;;;;;;3.45;0.90;;;;;;;;;;5086293;28;20304;-67
2023/07/05 10:01:35;;;;;;;1.88;0.95;;;;;;;;;;5090466;28;20230;-67
2023/07/05 10:04:04;;;;;;;3.78;1.25;;;;;;;;;;5089685;28;20245;-66
2023/07/05 10:06:30;;;;;;;1.90;1.02;;;;;;;;;;5083204;28;20644;-70
2023/07/05 10:08:59;;;;;;;4.38;1.45;;;;;;;;;;5088057;28;20192;-68
2023/07/05 10:11:26;;;;;;;5.28;1.55;;;;;;;;;;5086040;28;20585;-65
2023/07/05 10:14:05;;;;;;;5.15;1.23;;;;;;;;;;5078688;28;20288;-67
2023/07/05 10:16:44;;;;;;;5.03;1.58;;;;;;;;;;5081551;28;20717;-69
2023/07/05 10:19:25;;;;;;;3.25;1.20;;;;;;;;;;5075859;28;20560;-69
2023/07/05 10:21:55;;;;;;;6.90;1.73;;;;;;;;;;5070629;28;20191;-69
2023/07/05 10:24:21;;;;;;;4.97;1.85;;;;;;;;;;5078923;28;20541;-68
2023/07/05 10:26:51;;;;;;;6.43;1.60;;;;;;;;;;5088269;28;20188;-67
2023/07/05 10:29:23;;;;;;;8.65;1.80;;;;;;;;;;5076634;28;20267;-68
2023/07/05 10:31:54;;;;;;;5.15;1.60;;;;;;;;;;5087315;28;20305;-67
2023/07/05 10:34:23;;;;;;;7.38;1.92;;;;;;;;;;5089257;28;20630;-67
2023/07/05 10:36:49;;;;;;;6.85;1.45;;;;;;;;;;5086523;28;20404;-69
2023/07/05 10:39:22;;;;;;;5.43;1.65;;;;;;;;;;5085193;28;20580;-67
2023/07/05 10:41:50;;;;;;;5.07;2.00;;;;;;;;;;5080437;28;20234;-67
2023/07/05 10:44:32;;;;;;;7.00;1.92;;;;;;;;;;5089636;28;20196;-66
2023/07/05 10:46:59;;;;;;;6.75;2.38;;;;;;;;;;5076465;28;20180;-67
2023/07/05 10:49:26;;;;;;;4.75;1.77;;;;;;;;;;5079569;28;20646;-70
2023/07/05 10:52:00;;;;;;;6.20;2.05;;;;;;;;;;5077471;28;20240;-69
2023/07/05 10:54:34;;;;;;;7.32;1.98;;;;;;;;;;5086912;28;20424;-68
2023/07/05 10:57:08;;;;;;;5.68;2.00;;;;;;;;;;5085598;28;20615;-66
2023/07/05 10:59:40;;;;;;;8.00;1.92;;;;;;;;;;5080287;28;20607;-66
2023/07/05 11:02:11;;;;;;;8.85;2.10;;;;;;;;;;5076949;28;20731;-67
2023/07/05 11:04:40;;;;;;;4.82;2.00;;;;;;;;;;5076499;28;20207;-66
2023/07/05 11:07:10;;;;;;;8.98;2.20;;;;;;;;;;5083994;28;20563;-67
2023/07/05 11:09:37;;;;;;;9.27;2.20;;;;;;;;;;5080874;28;20230;-67
2023/07/05 11:12:10;;;;;;;11.15;2.00;;;;;;;;;;5081944;28;20201;-68
2023/07/05 11:14:36;;;;;;;8.00;2.08;;;;;;;;;;5085068;28;20271;-67
2023/07/05 11:17:37;;;;;;;7.07;2.20;;;;;;;;;;5084379;28;20531;-68
2023/07/05 11:20:42;;;;;;;10.90;2.30;;;;;;;;;;5080141;28;20239;-67
2023/07/05 11:23:09;;;;;;;7.47;1.88;;;;;;;;;;5078408;28;20196;-66
2023/07/05 11:25:58;;;;;;;8.65;2.17;;;;;;;;;;5081834;28;20634;-67
2023/07/05 11:28:39;;;;;;;4.15;1.92;;;;;;;;;;5086197;28;20678;-69
2023/07/05 11:31:06;;;;;;;11.75;2.40;;;;;;;;;;5084174;28;20214;-68
2023/07/05 11:33:31;;;;;;;4.82;1.88;;;;;;;;;;5086013;28;20207;-66
2023/07/05 11:36:01;;;;;;;8.45;2.30;;;;;;;;;;5079325;28;20559;-70
2023/07/05 11:38:36;;;;;;;5.75;1.70;;;;;;;;;;5076953;28;20632;-70
2023/07/05 11:41:08;;;;;;;5.32;1.92;;;;;;;;;;5084371;28;20198;-69
2023/07/05 11:43:42;;;;;;;10.18;2.10;;;;;;;;;;5085596;28;20180;-68
2023/07/05 11:46:38;;;;;;;8.07;2.22;;;;;;;;;;5086665;28;20706;-67
2023/07/05 11:49:26;;;;;;;8.57;2.03;;;;;;;;;;5077313;28;20188;-66
2023/07/05 11:52:03;;;;;;;6.75;2.10;;;;;;;;;;5078628;28;20208;-66
2023/07/05 11:54:56;;;;;;;6.85;1.73;;;;;;;;;;5082599;28;20242;-66
2023/07/05 11:57:23;;;;;;;7.68;1.95;;;;;;;;;;5072750;28;20188;-67
2023/07/05 12:00:12;;;;;;;5.28;1.67;;;;;;;;;;5080562;28;20192;-68
2023/07/05 12:02:58;;;;;;;4.43;2.05;;;;;;;;;;5079729;28;20605;-66
2023/07/05 12:05:28;;;;;;;4.97;1.35;;;;;;;;;;5085268;28;20751;-66
2023/07/05 12:08:12;;;;;;;3.40;1.48;;;;;;;;;;5076605;28;20199;-68
2023/07/05 12:10:41;;;;;;;4.72;1.67;;;;;;;;;;5078291;28;20746;-67
2023/07/05 12:13:16;;;;;;;4.95;1.55;;;;;;;;;;5074390;28;20232;-66
2023/07/05 12:15:42;;;;;;;5.07;1.60;;;;;;;;;;5083664;28;20241;-67
2023/07/05 12:18:13;;;;;;;5.05;1.83;;;;;;;;;;5080434;28;20191;-68
2023/07/05 12:20:42;;;;;;;6.13;1.77;;;;;;;;;;5078742;28;20199;-66
2023/07/05 12:23:13;;;;;;;3.70;1.58;;;;;;;;;;5077245;28;20185;-68
2023/07/05 12:25:39;;;;;;;7.15;1.75;;;;;;;;;;5077800;28;20217;-68
2023/07/05 12:28:16;;;;;;;3.80;1.55;;;;;;;;;;5085635;28;20198;-67
2023/07/05 12:30:42;;;;;;;5.25;1.95;;;;;;;;;;5081628;28;20193;-67
2023/07/05 12:33:26;;;;;;;3.95;1.75;;;;;;;;;;4372420;28;10000822;-66
2023/07/05 12:36:14;;;;;;;5.53;2.00;;;;;;;;;;5080605;28;20200;-66
2023/07/05 12:38:43;;;;;;;7.35;1.92;;;;;;;;;;5076392;28;20192;-67
2023/07/05 12:41:20;;;;;;;4.80;1.98;;;;;;;;;;5082533;28;20184;-69
2023/07/05 12:43:48;;;;;;;8.15;2.08;;;;;;;;;;5077748;28;20267;-70
2023/07/05 12:46:22;;;;;;;7.03;1.90;;;;;;;;;;5078689;28;20197;-68
2023/07/05 12:48:51;;;;;;;5.38;1.90;;;;;;;;;;5077882;28;20252;-67
2023/07/05 12:51:19;;;;;;;7.90;1.63;;;;;;;;;;5067038;28;20193;-69
2023/07/05 12:53:49;;;;;;;5.80;1.45;;;;;;;;;;5078553;28;20583;-69
2023/07/05 12:56:18;;;;;;;6.63;2.17;;;;;;;;;;5080666;28;20218;-68
2023/07/05 12:58:54;;;;;;;4.40;1.58;;;;;;;;;;5083927;28;20287;-67
2023/07/05 13:01:25;;;;;;;5.38;2.05;;;;;;;;;;5082216;28;20553;-66
2023/07/05 13:03:51;;;;;;;6.07;1.98;;;;;;;;;;5080709;28;20180;-67
2023/07/05 13:06:18;;;;;;;6.47;2.03;;;;;;;;;;5078156;28;20195;-66
2023/07/05 13:08:50;;;;;;;6.10;1.90;;;;;;;;;;5082431;28;20245;-68
2023/07/05 13:11:20;;;;;;;8.07;2.00;;;;;;;;;;5080916;28;20188;-66
2023/07/05 13:14:00;;;;;;;5.43;1.85;;;;;;;;;;5089101;28;20211;-68
2023/07/05 13:16:32;;;;;;;2.90;1.73;;;;;;;;;;5077181;28;20195;-67
2023/07/05 13:19:06;;;;;;;5.82;2.05;;;;;;;;;;5082292;28;20190;-69
2023/07/05 13:21:46;;;;;;;4.60;1.75;;;;;;;;;;5080109;28;20214;-66
2023/07/05 13:24:26;;;;;;;8.73;1.80;;;;;;;;;;5073204;28;20187;-66
2023/07/05 13:26:55;;;;;;;5.75;1.63;;;;;;;;;;5077081;28;20253;-67
2023/07/05 13:29:32;;;;;;;7.13;1.83;;;;;;;;;;5081788;28;20550;-71
2023/07/05 13:31:58;;;;;;;6.72;2.38;;;;;;;;;;5079097;28;20230;-67
2023/07/05 13:34:25;;;;;;;6.60;2.00;;;;;;;;;;5073287;28;20679;-69
2023/07/05 13:36:56;;;;;;;6.95;2.13;;;;;;;;;;5083815;28;20653;-66
2023/07/05 13:39:21;;;;;;;8.07;2.13;;;;;;;;;;5070591;28;20212;-67
2023/07/05 13:41:51;;;;;;;8.15;1.85;;;;;;;;;;5083352;28;20286;-66
2023/07/05 13:44:18;;;;;;;5.88;2.05;;;;;;;;;;5082576;28;20271;-68
2023/07/05 13:46:46;;;;;;;7.10;2.50;;;;;;;;;;5076067;28;20184;-67
2023/07/05 13:49:12;;;;;;;8.73;2.58;;;;;;;;;;5077641;28;20321;-66
2023/07/05 13:51:49;;;;;;;8.10;2.40;;;;;;;;;;5081468;28;20545;-68
2023/07/05 13:54:16;;;;;;;7.80;1.92;;;;;;;;;;5083290;28;20184;-66
2023/07/05 13:56:42;;;;;;;5.53;1.90;;;;;;;;;;5077219;28;21458;-68
2023/07/05 13:59:16;;;;;;;7.82;2.30;;;;;;;;;;5083406;28;20192;-68
2023/07/05 14:01:43;;;;;;;9.07;2.10;;;;;;;;;;5080988;28;20200;-69
2023/07/05 14:04:11;;;;;;;8.88;2.28;;;;;;;;;;5074308;28;20594;-67
2023/07/05 14:06:36;;;;;;;9.10;2.22;;;;;;;;;;5074814;28;20192;-68
2023/07/05 14:09:03;;;;;;;6.90;2.53;;;;;;;;;;5084499;28;20271;-69
2023/07/05 14:11:34;;;;;;;4.68;1.92;;;;;;;;;;5082050;28;20184;-68
2023/07/05 14:14:01;;;;;;;7.80;2.63;;;;;;;;;;5079007;28;20199;-68
2023/07/05 14:16:27;;;;;;;9.05;2.33;;;;;;;;;;5078283;28;20199;-66
2023/07/05 14:18:53;;;;;;;4.50;1.95;;;;;;;;;;5078818;28;20660;-67
2023/07/05 14:21:32;;;;;;;8.65;2.45;;;;;;;;;;5075655;28;20213;-67
2023/07/05 14:24:00;;;;;;;5.68;2.20;;;;;;;;;;5084573;28;20631;-67
2023/07/05 14:26:28;;;;;;;9.32;2.33;;;;;;;;;;5080020;28;20329;-66
2023/07/05 14:28:54;;;;;;;7.68;2.50;;;;;;;;;;5089310;28;20188;-66
2023/07/05 14:31:20;;;;;;;12.25;2.72;;;;;;;;;;5078344;28;20480;-67
2023/07/05 14:33:45;;;;;;;9.23;2.80;;;;;;;;;;5084058;28;20228;-66
2023/07/05 14:36:12;;;;;;;3.97;2.42;;;;;;;;;;5076271;28;20207;-67
2023/07/05 14:38:38;;;;;;;8.80;2.65;;;;;;;;;;5083362;28;20189;-66
2023/07/05 14:41:04;;;;;;;7.00;2.30;;;;;;;;;;5089166;28;20196;-66
2023/07/05 14:43:30;;;;;;;8.40;2.58;;;;;;;;;;5084116;28;20193;-67
2023/07/05 14:45:56;;;;;;;7.93;2.65;;;;;;;;;;5089187;28;20188;-67
2023/07/05 14:48:21;;;;;;;8.25;2.60;;;;;;;;;;5081303;28;20201;-67
2023/07/05 14:50:47;;;;;;;8.00;2.85;;;;;;;;;;5083248;28;20223;-68
2023/07/05 14:53:18;;;;;;;6.15;2.47;;;;;;;;;;5076373;28;20217;-66